Ana Sayfa
METAR-TAF:

METAR-TAF

Havaalanları :

Ciudad Victoria, Meksika

Enlem: 23-43N, Boylam: 098-58W, yükseklik: 238 m

Güncel hava durumu gözlemi

Rapor saat 11:40 UTC de 31 dakika önce yapıldı.
Rüzgar güneydoğudan 6 kt
Sıcaklık 23°C
Nem 83%
Basınç 1018 hPa
Görüş mesafesi: 6.4 km
Açık gökyüzü

METAR: MMCV 271140Z 13006KT 4SM SKC 23/20 A3007 RMK SLP184 5//// 927 HZ ISOL CI RTS

Saat: 07:11 (12:11 UTC)

Tahmin

Rapor saat 05:56 UTC de 6 saat ve 15 dakika önce yapıldı.
Ayın 27'si saat 06 UTC'den ayın 28'si saat 06 UTC'ye kadar geçerli Tahmin
Rüzgar doğudan 5 kt
Görüş mesafesi: 10 km
3000 ft yükseklikte parçalı bulutlu
Ayın 27'si saat 1800 UTC'den
Rüzgar doğu/güneydoğudan 10 kt
Görüş mesafesi: 10 km
2500 ft yükseklikte parçalı bulutlu
8000 ft yükseklikte parçalı bulutlu
Dönüşüyor
ayın 28'si saat 02 UTC'den ayın 28'si saat 04 UTC'ye kadar
Rüzgar doğudan 4 kt

TAF: MMCV 270556Z 2706/2806 09005KT P6SM SCT030 FM271800 12010KT P6SM SCT025 SCT080 BECMG 2802/2804 09004KT

4.000'den fazla havaalanı için hava durumu gözlemleri ve tahminleri (METAR ve TAF raporları).

Kullanılabilir istasyonlar harita üzerinde sarı ve kırmızı noktalarla gösterilir.

İstasyonun adını görmek için fareyi noktanın üzerinde gezdirin.

Sonrasında hava gözlem ve tahminlerini görmek için tıklayın.

Haritayı değiştirmek için: yaklaştırmak için siyah artı işaretli yeşil düğmeye ve uzaklaştırmak için de eksi işaretli düğmeye hızla tıklayın; bitişik haritalar için yeşil okları kullanın.


METAR-TAF: